createdAt,value
2019-05-20T00:00:34.000Z,22.00
2019-05-20T00:01:41.257Z,23.90
2019-05-20T00:02:49.258Z,22.17
2019-05-20T00:03:56.432Z,22.67
2019-05-20T00:05:04.420Z,26.83
2019-05-20T00:06:11.465Z,22.40
2019-05-20T00:07:19.447Z,24.40
2019-05-20T00:08:26.232Z,23.60
2019-05-20T00:09:34.484Z,23.53
2019-05-20T00:10:41.249Z,22.60
2019-05-20T00:11:49.092Z,24.70
2019-05-20T00:12:56.234Z,26.30
2019-05-20T00:14:03.926Z,25.83
2019-05-20T00:15:11.071Z,22.43
2019-05-20T00:16:19.086Z,23.80
2019-05-20T00:17:25.830Z,23.03
2019-05-20T00:18:33.443Z,23.00
2019-05-20T00:19:40.555Z,24.10
2019-05-20T00:20:48.418Z,45.27
2019-05-20T00:21:55.305Z,24.70
2019-05-20T00:23:03.374Z,25.20
2019-05-20T00:24:10.490Z,23.00
2019-05-20T00:25:18.174Z,23.03
2019-05-20T00:26:24.920Z,22.13
2019-05-20T00:27:32.798Z,21.47
2019-05-20T00:28:39.950Z,25.03
2019-05-20T00:29:48.154Z,26.10
2019-05-20T00:30:55.467Z,21.47
2019-05-20T00:32:03.410Z,30.30
2019-05-20T00:33:10.505Z,30.83
2019-05-20T00:34:32.713Z,25.57
2019-05-20T00:35:28.817Z,25.70
2019-05-20T00:36:36.421Z,24.10
2019-05-20T00:37:43.542Z,29.63
2019-05-20T00:39:09.488Z,25.20
2019-05-20T00:40:16.688Z,23.67
2019-05-20T00:41:24.559Z,22.10
2019-05-20T00:42:31.483Z,24.43
2019-05-20T00:43:39.292Z,26.17
2019-05-20T00:44:46.376Z,22.53
2019-05-20T00:45:53.905Z,26.50
2019-05-20T00:47:00.644Z,31.43
2019-05-20T00:48:08.274Z,26.63
2019-05-20T00:49:15.020Z,29.63
2019-05-20T00:50:22.796Z,28.87
2019-05-20T00:51:29.575Z,31.50
2019-05-20T00:52:37.265Z,23.83
2019-05-20T00:53:44.634Z,27.93
2019-05-20T00:54:52.714Z,31.63
2019-05-20T00:56:00.238Z,29.80
2019-05-20T00:57:08.122Z,26.03
2019-05-20T00:58:15.306Z,28.43
2019-05-20T00:59:23.151Z,28.90
2019-05-20T01:00:30.787Z,30.17
2019-05-20T01:01:38.897Z,27.67
2019-05-20T01:02:56.391Z,32.87
2019-05-20T01:03:55.204Z,29.07
2019-05-20T01:05:02.447Z,31.30
2019-05-20T01:06:09.967Z,25.63
2019-05-20T01:07:17.050Z,26.40
2019-05-20T01:08:24.558Z,32.40
2019-05-20T01:09:32.135Z,33.47
2019-05-20T01:10:40.255Z,33.90
2019-05-20T01:11:47.033Z,35.40
2019-05-20T01:12:54.653Z,37.40
2019-05-20T01:14:01.860Z,34.97
2019-05-20T01:15:10.006Z,32.40
2019-05-20T01:16:17.161Z,31.70
2019-05-20T01:17:25.157Z,31.40
2019-05-20T01:18:32.337Z,30.13
2019-05-20T01:19:39.869Z,29.37
2019-05-20T01:20:47.518Z,30.63
2019-05-20T01:21:55.422Z,28.13
2019-05-20T01:23:02.181Z,31.37
2019-05-20T01:24:10.082Z,31.17
2019-05-20T01:25:16.944Z,31.00
2019-05-20T01:26:24.626Z,29.93
2019-05-20T01:27:31.416Z,30.47
2019-05-20T01:28:39.327Z,27.80
2019-05-20T01:29:46.079Z,36.63
2019-05-20T01:30:53.700Z,35.43
2019-05-20T01:32:00.858Z,31.80
2019-05-20T01:33:13.864Z,34.80
2019-05-20T01:34:17.479Z,32.97
2019-05-20T01:35:25.712Z,33.03
2019-05-20T01:36:32.776Z,31.90
2019-05-20T01:37:40.482Z,31.03
2019-05-20T01:38:47.259Z,42.00
2019-05-20T01:39:55.610Z,35.27
2019-05-20T01:41:02.706Z,38.27
2019-05-20T01:42:10.243Z,36.23
2019-05-20T01:43:17.022Z,38.17
2019-05-20T01:44:24.890Z,36.67
2019-05-20T01:45:32.083Z,38.20
2019-05-20T01:46:39.945Z,40.40
2019-05-20T01:47:46.692Z,32.50
2019-05-20T01:48:54.604Z,35.60
2019-05-20T01:50:01.384Z,38.03
2019-05-20T01:51:09.156Z,40.23
2019-05-20T01:52:16.119Z,36.10
2019-05-20T01:53:23.641Z,45.23
2019-05-20T01:54:32.078Z,38.23
2019-05-20T01:55:40.210Z,36.73
2019-05-20T01:56:46.983Z,42.53
2019-05-20T01:57:54.474Z,42.20
2019-05-20T01:59:01.473Z,39.73
2019-05-20T02:00:11.362Z,42.20
2019-05-20T02:01:18.491Z,39.50
2019-05-20T02:02:26.418Z,43.23
2019-05-20T02:03:33.199Z,35.40
2019-05-20T02:04:40.964Z,39.00
2019-05-20T02:05:48.060Z,36.73
2019-05-20T02:06:55.757Z,43.93
2019-05-20T02:08:02.840Z,55.63
2019-05-20T02:09:11.693Z,51.10
2019-05-20T02:10:19.022Z,52.03
2019-05-20T02:11:26.625Z,52.30
2019-05-20T02:12:33.409Z,54.27
2019-05-20T02:13:56.645Z,52.70
2019-05-20T02:15:25.582Z,58.27
2019-05-20T02:16:32.417Z,64.57
2019-05-20T02:17:40.670Z,66.40
2019-05-20T02:18:47.758Z,62.13
2019-05-20T02:19:55.342Z,65.30
2019-05-20T02:21:02.148Z,71.53
2019-05-20T02:22:10.194Z,81.07
2019-05-20T02:23:17.242Z,81.83
2019-05-20T02:24:24.925Z,90.60
2019-05-20T02:25:31.698Z,91.17
2019-05-20T02:26:39.237Z,100.70
2019-05-20T02:27:46.004Z,87.23
2019-05-20T02:28:53.530Z,107.60
2019-05-20T02:30:00.864Z,96.20
2019-05-20T02:31:08.412Z,100.70
2019-05-20T02:32:15.297Z,118.90
2019-05-20T02:33:22.804Z,127.30
2019-05-20T02:34:29.577Z,117.23
2019-05-20T02:35:39.210Z,118.10
2019-05-20T02:36:46.372Z,110.30
2019-05-20T02:37:53.877Z,116.40
2019-05-20T02:39:01.348Z,116.00
2019-05-20T02:40:09.696Z,106.13
2019-05-20T02:41:16.600Z,116.87
2019-05-20T02:42:24.123Z,98.43
2019-05-20T02:43:31.271Z,117.10
2019-05-20T02:44:38.861Z,118.40
2019-05-20T02:45:45.678Z,112.43
2019-05-20T02:46:53.220Z,112.87
2019-05-20T02:48:00.016Z,115.70
2019-05-20T02:49:07.587Z,110.60
2019-05-20T02:50:15.632Z,108.97
2019-05-20T02:51:41.290Z,112.63
2019-05-20T02:52:48.719Z,112.73
2019-05-20T02:53:56.265Z,121.73
2019-05-20T02:55:04.142Z,103.07
2019-05-20T02:56:11.705Z,116.97
2019-05-20T02:57:18.733Z,103.70
2019-05-20T02:58:26.557Z,101.73
2019-05-20T02:59:33.328Z,103.43
2019-05-20T03:00:40.838Z,112.60
2019-05-20T03:01:47.609Z,105.97
2019-05-20T03:02:55.404Z,106.03
2019-05-20T03:04:11.718Z,101.57
2019-05-20T03:05:11.893Z,112.00
2019-05-20T03:06:18.657Z,100.33
2019-05-20T03:07:26.571Z,103.63
2019-05-20T03:08:33.744Z,118.03
2019-05-20T03:09:41.249Z,99.77
2019-05-20T03:10:48.432Z,101.17
2019-05-20T03:11:56.300Z,100.17
2019-05-20T03:13:03.784Z,108.30
2019-05-20T03:14:11.311Z,104.67
2019-05-20T03:15:18.358Z,109.97
2019-05-20T03:16:26.211Z,99.87
2019-05-20T03:17:33.365Z,98.73
2019-05-20T03:18:41.543Z,99.10
2019-05-20T03:19:48.297Z,105.83
2019-05-20T03:20:55.809Z,95.73
2019-05-20T03:22:02.893Z,91.43
2019-05-20T03:23:10.860Z,101.03
2019-05-20T03:24:17.616Z,93.73
2019-05-20T03:25:25.468Z,92.97
2019-05-20T03:26:32.283Z,101.77
2019-05-20T03:27:40.121Z,97.97
2019-05-20T03:28:47.810Z,96.43
2019-05-20T03:29:56.035Z,83.10
2019-05-20T03:31:02.808Z,97.43
2019-05-20T03:32:10.307Z,79.30
2019-05-20T03:33:17.465Z,82.57
2019-05-20T03:34:45.741Z,84.90
2019-05-20T03:35:33.688Z,82.30
2019-05-20T03:36:41.551Z,81.33
2019-05-20T03:37:48.321Z,77.10
2019-05-20T03:38:56.522Z,74.97
2019-05-20T03:40:03.353Z,77.70
2019-05-20T03:41:11.185Z,80.60
2019-05-20T03:42:17.942Z,81.97
2019-05-20T03:43:25.777Z,76.90
2019-05-20T03:44:32.551Z,80.87
2019-05-20T03:45:40.767Z,82.30
2019-05-20T03:46:47.530Z,84.60
2019-05-20T03:47:55.033Z,80.33
2019-05-20T03:49:02.172Z,84.77
2019-05-20T03:50:10.582Z,86.10
2019-05-20T03:51:17.363Z,87.70
2019-05-20T03:52:25.000Z,78.00
2019-05-20T03:53:32.164Z,77.70
2019-05-20T03:54:40.053Z,84.57
2019-05-20T03:55:47.299Z,80.30
2019-05-20T03:56:55.126Z,84.07
2019-05-20T03:58:02.500Z,78.77
2019-05-20T03:59:10.315Z,80.63
2019-05-20T04:00:20.209Z,79.17
2019-05-20T04:01:27.735Z,83.03
2019-05-20T04:02:34.981Z,86.50
2019-05-20T04:03:42.845Z,79.97
2019-05-20T04:05:01.214Z,77.60
2019-05-20T04:05:59.201Z,70.80
2019-05-20T04:07:06.062Z,77.20
2019-05-20T04:08:13.681Z,77.67
2019-05-20T04:09:20.849Z,75.23
2019-05-20T04:10:29.042Z,73.53
2019-05-20T04:11:36.147Z,76.77
2019-05-20T04:12:44.126Z,70.27
2019-05-20T04:13:51.210Z,75.97
2019-05-20T04:14:58.709Z,77.40
2019-05-20T04:16:05.506Z,82.43
2019-05-20T04:17:13.152Z,78.47
2019-05-20T04:18:20.437Z,86.00
2019-05-20T04:19:27.946Z,73.07
2019-05-20T04:20:34.895Z,73.40
2019-05-20T04:21:42.407Z,83.57
2019-05-20T04:22:49.192Z,87.90
2019-05-20T04:24:00.968Z,76.03
2019-05-20T04:25:06.034Z,74.70
2019-05-20T04:26:13.894Z,83.10
2019-05-20T04:27:20.665Z,79.63
2019-05-20T04:28:28.163Z,82.93
2019-05-20T04:29:35.114Z,74.20
2019-05-20T04:30:43.063Z,74.70
2019-05-20T04:31:49.830Z,81.77
2019-05-20T04:32:57.694Z,84.23
2019-05-20T04:34:04.646Z,80.20
2019-05-20T04:35:22.357Z,72.77
2019-05-20T04:36:21.338Z,83.47
2019-05-20T04:37:28.888Z,76.17
2019-05-20T04:38:35.700Z,75.83
2019-05-20T04:39:43.528Z,81.60
2019-05-20T04:40:50.704Z,70.67
2019-05-20T04:41:58.249Z,90.63
2019-05-20T04:43:05.128Z,78.40
2019-05-20T04:44:13.018Z,81.63
2019-05-20T04:45:20.243Z,74.80
2019-05-20T04:46:27.959Z,70.87
2019-05-20T04:47:35.632Z,79.07
2019-05-20T04:48:43.199Z,67.80
2019-05-20T04:49:50.682Z,90.33
2019-05-20T04:50:58.194Z,77.27
2019-05-20T04:52:04.953Z,75.70
2019-05-20T04:53:12.466Z,81.00
2019-05-20T04:54:19.229Z,92.10
2019-05-20T04:55:26.857Z,81.43
2019-05-20T04:56:33.642Z,83.87
2019-05-20T04:57:41.222Z,79.77
2019-05-20T04:58:48.391Z,92.57
2019-05-20T04:59:56.130Z,83.43
2019-05-20T05:01:03.004Z,82.73
2019-05-20T05:02:10.727Z,82.47
2019-05-20T05:03:17.902Z,81.20
2019-05-20T05:04:25.430Z,80.00
2019-05-20T05:05:37.488Z,79.37
2019-05-20T05:06:41.659Z,78.03
2019-05-20T05:07:49.082Z,79.20
2019-05-20T05:08:56.587Z,85.57
2019-05-20T05:10:03.354Z,83.43
2019-05-20T05:11:11.903Z,80.43
2019-05-20T05:12:18.903Z,79.43
2019-05-20T05:13:27.652Z,81.33
2019-05-20T05:14:34.838Z,73.57
2019-05-20T05:15:42.669Z,86.17
2019-05-20T05:16:49.814Z,80.40
2019-05-20T05:17:57.310Z,78.30
2019-05-20T05:19:04.177Z,76.47
2019-05-20T05:20:17.878Z,78.33
2019-05-20T05:21:20.980Z,73.60
2019-05-20T05:22:28.986Z,85.00
2019-05-20T05:23:36.073Z,73.30
2019-05-20T05:24:43.646Z,76.57
2019-05-20T05:25:50.526Z,74.17
2019-05-20T05:26:58.758Z,74.57
2019-05-20T05:28:05.767Z,71.27
2019-05-20T05:29:13.394Z,78.53
2019-05-20T05:30:20.357Z,74.17
2019-05-20T05:31:28.210Z,75.43
2019-05-20T05:32:44.843Z,74.67
2019-05-20T05:33:54.323Z,74.73
2019-05-20T05:35:01.312Z,76.83
2019-05-20T05:36:09.141Z,72.57
2019-05-20T05:37:16.347Z,76.97
2019-05-20T05:38:24.256Z,76.70
2019-05-20T05:39:31.105Z,80.00
2019-05-20T05:40:38.705Z,68.37
2019-05-20T05:41:45.486Z,76.50
2019-05-20T05:42:53.100Z,76.53
2019-05-20T05:44:00.510Z,75.13
2019-05-20T05:45:08.742Z,75.57
2019-05-20T05:46:15.500Z,71.73
2019-05-20T05:47:23.020Z,72.37
2019-05-20T05:48:29.776Z,70.50
2019-05-20T05:49:37.324Z,70.57
2019-05-20T05:50:44.383Z,80.13
2019-05-20T05:51:51.962Z,67.90
2019-05-20T05:52:59.099Z,69.43
2019-05-20T05:54:06.975Z,75.73
2019-05-20T05:55:13.751Z,70.40
2019-05-20T05:56:21.603Z,69.10
2019-05-20T05:57:28.426Z,69.00
2019-05-20T05:58:35.951Z,69.00
2019-05-20T05:59:42.711Z,67.90
2019-05-20T06:00:50.488Z,71.40
2019-05-20T06:01:57.245Z,69.70
2019-05-20T06:03:04.752Z,68.77
2019-05-20T06:04:11.494Z,66.40
2019-05-20T06:05:19.235Z,62.27
2019-05-20T06:06:26.447Z,68.50
2019-05-20T06:07:34.099Z,72.97
2019-05-20T06:08:40.846Z,70.30
2019-05-20T06:09:48.339Z,59.70
2019-05-20T06:10:55.758Z,68.40
2019-05-20T06:12:03.284Z,68.27
2019-05-20T06:13:10.447Z,64.70
2019-05-20T06:14:18.241Z,63.67
2019-05-20T06:15:26.212Z,68.27
2019-05-20T06:16:36.860Z,66.50
2019-05-20T06:17:42.204Z,65.53
2019-05-20T06:18:50.091Z,76.37
2019-05-20T06:19:56.855Z,68.33
2019-05-20T06:21:04.687Z,71.40
2019-05-20T06:22:14.343Z,73.13
2019-05-20T06:23:21.059Z,73.90
2019-05-20T06:24:27.893Z,68.40
2019-05-20T06:25:35.408Z,75.40
2019-05-20T06:26:42.550Z,73.27
2019-05-20T06:27:50.050Z,76.60
2019-05-20T06:28:56.797Z,73.63
2019-05-20T06:30:04.457Z,83.27
2019-05-20T06:31:11.818Z,70.37
2019-05-20T06:32:19.321Z,76.97
2019-05-20T06:33:26.083Z,67.47
2019-05-20T06:34:35.162Z,69.73
2019-05-20T06:35:42.328Z,70.03
2019-05-20T06:36:51.456Z,71.20
2019-05-20T06:37:59.868Z,74.20
2019-05-20T06:39:15.114Z,68.83
2019-05-20T06:40:22.074Z,62.70
2019-05-20T06:41:29.790Z,66.87
2019-05-20T06:42:36.566Z,60.73
2019-05-20T06:43:44.486Z,70.30
2019-05-20T06:44:53.232Z,69.80
2019-05-20T06:46:01.003Z,71.93
2019-05-20T06:47:07.966Z,68.97
2019-05-20T06:48:15.472Z,64.37
2019-05-20T06:49:22.223Z,72.07
2019-05-20T06:50:30.039Z,63.60
2019-05-20T06:51:38.546Z,64.47
2019-05-20T06:52:46.101Z,57.57
2019-05-20T06:53:52.967Z,67.20
2019-05-20T06:55:00.477Z,57.77
2019-05-20T06:56:07.344Z,61.53
2019-05-20T06:57:15.177Z,58.13
2019-05-20T06:58:22.459Z,62.60
2019-05-20T06:59:29.959Z,67.47
2019-05-20T07:00:40.140Z,54.37
2019-05-20T07:01:47.641Z,71.30
2019-05-20T07:02:54.399Z,61.53
2019-05-20T07:04:02.332Z,58.47
2019-05-20T07:05:09.718Z,63.07
2019-05-20T07:06:17.239Z,65.47
2019-05-20T07:07:24.391Z,66.07
2019-05-20T07:08:32.508Z,66.13
2019-05-20T07:09:39.386Z,69.33
2019-05-20T07:10:47.579Z,59.90
2019-05-20T07:11:54.355Z,68.90
2019-05-20T07:13:02.255Z,71.80
2019-05-20T07:14:08.993Z,66.37
2019-05-20T07:15:16.636Z,67.10
2019-05-20T07:16:23.406Z,67.77
2019-05-20T07:17:31.324Z,65.90
2019-05-20T07:18:38.257Z,59.37
2019-05-20T07:19:45.754Z,68.77
2019-05-20T07:20:52.534Z,72.13
2019-05-20T07:22:00.417Z,66.33
2019-05-20T07:23:07.180Z,63.93
2019-05-20T07:24:14.690Z,62.07
2019-05-20T07:25:21.543Z,65.90
2019-05-20T07:26:29.476Z,71.77
2019-05-20T07:27:36.232Z,67.97
2019-05-20T07:28:44.109Z,66.63
2019-05-20T07:29:50.860Z,64.43
2019-05-20T07:30:58.417Z,64.33
2019-05-20T07:32:05.329Z,71.17
2019-05-20T07:33:12.831Z,62.17
2019-05-20T07:34:19.894Z,64.30
2019-05-20T07:35:30.707Z,65.47
2019-05-20T07:36:36.318Z,66.30
2019-05-20T07:37:43.835Z,67.83
2019-05-20T07:38:50.583Z,69.10
2019-05-20T07:39:58.137Z,60.20
2019-05-20T07:41:05.273Z,64.47
2019-05-20T07:42:12.832Z,53.67
2019-05-20T07:43:20.032Z,58.77
2019-05-20T07:44:28.592Z,57.70
2019-05-20T07:45:37.194Z,55.93
2019-05-20T07:46:44.793Z,52.87
2019-05-20T07:47:51.892Z,54.93
2019-05-20T07:48:59.890Z,52.80
2019-05-20T07:50:07.633Z,56.07
2019-05-20T07:51:17.194Z,59.10
2019-05-20T07:52:26.899Z,57.23
2019-05-20T07:53:35.710Z,57.60
2019-05-20T07:54:42.832Z,63.83
2019-05-20T07:56:01.274Z,52.70
2019-05-20T07:57:12.571Z,64.10
2019-05-20T07:58:24.169Z,56.80
2019-05-20T07:59:34.672Z,61.20
2019-05-20T08:00:43.188Z,56.30
2019-05-20T08:01:50.258Z,52.47
2019-05-20T08:02:58.557Z,60.90
2019-05-20T08:04:05.642Z,54.80
2019-05-20T08:05:13.852Z,54.13
2019-05-20T08:06:20.674Z,55.90
2019-05-20T08:07:49.893Z,55.30
2019-05-20T08:08:37.000Z,60.27
2019-05-20T08:09:46.307Z,59.57
2019-05-20T08:10:53.037Z,56.03
2019-05-20T08:12:00.558Z,65.70
2019-05-20T08:13:07.548Z,56.00
2019-05-20T08:14:15.331Z,60.60
2019-05-20T08:15:22.095Z,58.23
2019-05-20T08:16:29.694Z,61.43
2019-05-20T08:17:36.482Z,59.50
2019-05-20T08:18:44.290Z,56.30
2019-05-20T08:19:51.111Z,54.63
2019-05-20T08:20:59.220Z,62.27
2019-05-20T08:22:05.990Z,54.00
2019-05-20T08:23:13.507Z,57.30
2019-05-20T08:24:20.735Z,67.37
2019-05-20T08:25:28.270Z,58.77
2019-05-20T08:26:35.561Z,63.20
2019-05-20T08:27:43.461Z,59.93
2019-05-20T08:28:50.960Z,62.20
2019-05-20T08:29:58.856Z,61.13
2019-05-20T08:31:05.716Z,61.27
2019-05-20T08:32:13.242Z,57.23
2019-05-20T08:33:19.999Z,56.53
2019-05-20T08:34:27.515Z,58.47
2019-05-20T08:35:34.836Z,59.73
2019-05-20T08:36:42.671Z,56.60
2019-05-20T08:37:50.245Z,60.00
2019-05-20T08:38:57.753Z,61.83
2019-05-20T08:40:05.599Z,53.40
2019-05-20T08:41:13.516Z,62.23
2019-05-20T08:42:20.420Z,54.03
2019-05-20T08:43:28.039Z,55.07
2019-05-20T08:44:35.274Z,51.90
2019-05-20T08:45:42.785Z,55.90
2019-05-20T08:46:49.657Z,55.67
2019-05-20T08:47:57.742Z,66.47
2019-05-20T08:49:09.855Z,55.93
2019-05-20T08:50:16.368Z,59.77
2019-05-20T08:51:22.847Z,68.83
2019-05-20T08:52:30.655Z,55.57
2019-05-20T08:53:37.407Z,67.53
2019-05-20T08:54:45.323Z,59.30
2019-05-20T08:55:52.181Z,53.47
2019-05-20T08:56:59.689Z,65.30
2019-05-20T08:58:06.886Z,57.83
2019-05-20T08:59:14.410Z,60.40
2019-05-20T09:00:24.470Z,64.40
2019-05-20T09:01:32.578Z,59.10
2019-05-20T09:02:39.381Z,63.93
2019-05-20T09:03:46.892Z,57.60
2019-05-20T09:04:54.022Z,67.43
2019-05-20T09:06:02.395Z,63.80
2019-05-20T09:07:09.925Z,55.23
2019-05-20T09:08:17.438Z,63.67
2019-05-20T09:09:24.321Z,57.60
2019-05-20T09:10:32.481Z,61.37
2019-05-20T09:11:39.623Z,57.70
2019-05-20T09:12:47.098Z,61.67
2019-05-20T09:13:54.396Z,60.30
2019-05-20T09:15:02.354Z,61.30
2019-05-20T09:16:09.433Z,57.83
2019-05-20T09:17:17.465Z,61.17
2019-05-20T09:18:24.252Z,62.10
2019-05-20T09:19:32.437Z,60.33
2019-05-20T09:20:39.699Z,62.23
2019-05-20T09:21:47.319Z,57.87
2019-05-20T09:22:54.444Z,57.40
2019-05-20T09:24:02.159Z,59.53
2019-05-20T09:25:10.158Z,57.03
2019-05-20T09:26:18.364Z,59.33
2019-05-20T09:27:25.139Z,62.70
2019-05-20T09:28:32.700Z,57.40
2019-05-20T09:29:39.467Z,64.87
2019-05-20T09:30:47.176Z,62.67
2019-05-20T09:31:54.261Z,62.37
2019-05-20T09:33:01.876Z,58.23
2019-05-20T09:34:09.023Z,55.93
2019-05-20T09:35:16.821Z,63.33
2019-05-20T09:36:25.904Z,64.37
2019-05-20T09:37:32.786Z,62.80
2019-05-20T09:38:40.305Z,63.23
2019-05-20T09:39:47.979Z,58.50
2019-05-20T09:40:54.764Z,57.33
2019-05-20T09:42:02.252Z,53.20
2019-05-20T09:43:09.930Z,61.33
2019-05-20T09:44:17.511Z,58.10
2019-05-20T09:45:24.301Z,65.43
2019-05-20T09:46:31.838Z,63.93
2019-05-20T09:47:39.087Z,60.53
2019-05-20T09:48:46.988Z,59.87
2019-05-20T09:49:53.824Z,61.43
2019-05-20T09:51:01.616Z,62.37
2019-05-20T09:52:09.041Z,59.60
2019-05-20T09:53:17.026Z,57.17
2019-05-20T09:54:23.789Z,64.40
2019-05-20T09:55:31.457Z,63.70
2019-05-20T09:56:38.296Z,60.00
2019-05-20T09:57:45.866Z,64.80
2019-05-20T09:58:52.979Z,58.70
2019-05-20T10:00:01.061Z,61.50
2019-05-20T10:01:07.879Z,57.43
2019-05-20T10:02:15.386Z,63.37
2019-05-20T10:03:22.165Z,57.50
2019-05-20T10:04:30.203Z,56.27
2019-05-20T10:05:38.043Z,63.07
2019-05-20T10:06:45.622Z,67.77
2019-05-20T10:07:52.399Z,63.13
2019-05-20T10:08:59.922Z,62.47
2019-05-20T10:10:08.327Z,61.00
2019-05-20T10:11:16.177Z,61.73
2019-05-20T10:12:23.229Z,63.73
2019-05-20T10:13:30.735Z,61.30
2019-05-20T10:14:37.596Z,59.27
2019-05-20T10:15:45.743Z,61.90
2019-05-20T10:16:52.594Z,65.40
2019-05-20T10:18:00.106Z,58.53
2019-05-20T10:19:07.495Z,62.17
2019-05-20T10:20:16.665Z,60.33
2019-05-20T10:21:24.013Z,58.33
2019-05-20T10:22:32.337Z,54.13
2019-05-20T10:23:39.175Z,59.37
2019-05-20T10:24:46.804Z,58.17
2019-05-20T10:25:54.670Z,57.97
2019-05-20T10:27:02.256Z,56.10
2019-05-20T10:28:09.034Z,65.17
2019-05-20T10:29:16.554Z,62.83
2019-05-20T10:30:23.818Z,61.03
2019-05-20T10:31:31.842Z,60.17
2019-05-20T10:32:39.120Z,61.03
2019-05-20T10:33:46.601Z,53.73
2019-05-20T10:34:53.781Z,55.70
2019-05-20T10:36:01.675Z,59.43
2019-05-20T10:37:08.632Z,54.07
2019-05-20T10:38:16.214Z,55.30
2019-05-20T10:39:23.214Z,60.87
2019-05-20T10:40:30.732Z,58.23
2019-05-20T10:41:37.552Z,52.23
2019-05-20T10:42:45.207Z,58.27
2019-05-20T10:43:52.366Z,55.70
2019-05-20T10:45:00.246Z,61.00
2019-05-20T10:46:07.513Z,58.20
2019-05-20T10:47:15.393Z,58.50
2019-05-20T10:48:22.174Z,61.97
2019-05-20T10:49:29.697Z,75.63
2019-05-20T10:50:36.769Z,54.43
2019-05-20T10:51:44.359Z,58.43
2019-05-20T10:52:51.638Z,60.20
2019-05-20T10:53:59.495Z,56.20
2019-05-20T10:55:07.711Z,51.93
2019-05-20T10:56:15.691Z,54.27
2019-05-20T10:57:22.634Z,53.60
2019-05-20T10:58:30.130Z,50.87
2019-05-20T10:59:36.927Z,53.13
2019-05-20T11:01:01.215Z,55.73
2019-05-20T11:01:53.325Z,49.67
2019-05-20T11:03:00.839Z,54.73
2019-05-20T11:04:07.632Z,57.80
2019-05-20T11:05:15.339Z,61.93
2019-05-20T11:06:22.190Z,54.13
2019-05-20T11:07:29.732Z,50.23
2019-05-20T11:08:36.874Z,48.40
2019-05-20T11:09:44.444Z,44.47
2019-05-20T11:10:51.339Z,45.30
2019-05-20T11:11:59.017Z,50.53
2019-05-20T11:13:05.783Z,49.20
2019-05-20T11:14:13.595Z,50.70
2019-05-20T11:15:20.583Z,50.60
2019-05-20T11:16:28.366Z,50.73
2019-05-20T11:17:35.194Z,46.30
2019-05-20T11:18:42.696Z,48.67
2019-05-20T11:19:49.466Z,46.77
2019-05-20T11:20:57.242Z,47.40
2019-05-20T11:22:04.097Z,56.23
2019-05-20T11:23:11.956Z,45.30
2019-05-20T11:24:19.037Z,43.97
2019-05-20T11:25:26.537Z,44.27
2019-05-20T11:26:33.714Z,44.60
2019-05-20T11:27:41.520Z,50.57
2019-05-20T11:28:48.692Z,45.03
2019-05-20T11:29:56.483Z,52.17
2019-05-20T11:31:03.674Z,46.40
2019-05-20T11:32:11.358Z,42.53
2019-05-20T11:33:18.107Z,42.50
2019-05-20T11:34:25.616Z,46.03
2019-05-20T11:35:33.553Z,46.20
2019-05-20T11:36:41.813Z,45.00
2019-05-20T11:37:48.662Z,46.00
2019-05-20T11:38:56.793Z,39.93
2019-05-20T11:40:04.837Z,48.13
2019-05-20T11:41:13.152Z,45.47
2019-05-20T11:42:20.006Z,44.97
2019-05-20T11:43:27.517Z,44.77
2019-05-20T11:44:35.158Z,44.60
2019-05-20T11:45:42.662Z,44.13
2019-05-20T11:46:49.820Z,45.80
2019-05-20T11:47:57.440Z,43.53
2019-05-20T11:49:04.203Z,38.10
2019-05-20T11:50:13.195Z,45.43
2019-05-20T11:51:20.388Z,44.47
2019-05-20T11:52:28.186Z,44.20
2019-05-20T11:53:35.336Z,46.57
2019-05-20T11:54:43.560Z,46.23
2019-05-20T11:55:50.850Z,47.33
2019-05-20T11:56:58.361Z,44.30
2019-05-20T11:58:15.259Z,41.60
2019-05-20T11:59:15.102Z,41.10
2019-05-20T12:00:22.730Z,43.60
2019-05-20T12:01:30.658Z,48.00
2019-05-20T12:02:38.518Z,42.03
2019-05-20T12:03:46.513Z,48.40
2019-05-20T12:04:53.290Z,44.57
2019-05-20T12:06:00.885Z,46.57
2019-05-20T12:07:08.650Z,41.97
2019-05-20T12:08:16.698Z,43.83
2019-05-20T12:09:23.750Z,50.67
2019-05-20T12:10:31.400Z,41.33
2019-05-20T12:11:38.609Z,45.60
2019-05-20T12:12:46.322Z,40.97
2019-05-20T12:13:53.179Z,45.70
2019-05-20T12:15:00.820Z,42.33
2019-05-20T12:16:08.172Z,45.93
2019-05-20T12:17:16.067Z,41.23
2019-05-20T12:18:22.838Z,43.43
2019-05-20T12:19:30.356Z,40.43
2019-05-20T12:20:37.118Z,44.50
2019-05-20T12:21:44.700Z,48.20
2019-05-20T12:22:52.039Z,39.67
2019-05-20T12:23:59.594Z,44.93
2019-05-20T12:25:07.239Z,37.60
2019-05-20T12:26:14.730Z,44.77
2019-05-20T12:27:21.509Z,45.30
2019-05-20T12:28:29.473Z,48.20
2019-05-20T12:29:36.608Z,43.13
2019-05-20T12:30:44.128Z,39.77
2019-05-20T12:31:50.951Z,44.80
2019-05-20T12:33:17.023Z,40.13
2019-05-20T12:34:07.460Z,37.90
2019-05-20T12:35:15.095Z,40.80
2019-05-20T12:36:22.242Z,43.60
2019-05-20T12:37:30.100Z,34.73
2019-05-20T12:38:36.924Z,39.63
2019-05-20T12:39:44.431Z,38.20
2019-05-20T12:40:51.194Z,40.80
2019-05-20T12:41:59.376Z,41.40
2019-05-20T12:43:06.456Z,37.67
2019-05-20T12:44:14.018Z,44.73
2019-05-20T12:45:21.437Z,40.70
2019-05-20T12:46:29.638Z,41.10
2019-05-20T12:47:36.824Z,42.40
2019-05-20T12:48:44.460Z,43.30
2019-05-20T12:49:51.455Z,43.50
2019-05-20T12:50:59.281Z,40.97
2019-05-20T12:52:06.955Z,37.77
2019-05-20T12:53:25.956Z,41.13
2019-05-20T12:54:33.225Z,38.87
2019-05-20T12:55:40.782Z,40.37
2019-05-20T12:56:47.878Z,46.60
2019-05-20T12:57:55.675Z,44.63
2019-05-20T12:59:02.438Z,41.87
2019-05-20T13:00:11.122Z,40.53
2019-05-20T13:01:18.212Z,41.53
2019-05-20T13:02:26.019Z,51.33
2019-05-20T13:03:32.772Z,49.73
2019-05-20T13:04:40.306Z,39.40
2019-05-20T13:05:47.421Z,43.23
2019-05-20T13:06:54.919Z,47.97
2019-05-20T13:08:01.710Z,42.57
2019-05-20T13:09:10.507Z,45.00
2019-05-20T13:10:29.114Z,45.37
2019-05-20T13:11:27.286Z,47.37
2019-05-20T13:12:34.482Z,40.90
2019-05-20T13:13:42.002Z,46.47
2019-05-20T13:14:48.994Z,44.47
2019-05-20T13:15:56.494Z,46.53
2019-05-20T13:17:03.687Z,45.27
2019-05-20T13:18:11.310Z,45.33
2019-05-20T13:19:18.139Z,43.87
2019-05-20T13:20:25.680Z,42.93
2019-05-20T13:21:32.798Z,43.70
2019-05-20T13:22:40.385Z,38.73
2019-05-20T13:23:48.923Z,41.87
2019-05-20T13:24:56.396Z,45.20
2019-05-20T13:26:03.635Z,43.10
2019-05-20T13:27:11.477Z,48.30
2019-05-20T13:28:18.238Z,43.00
2019-05-20T13:29:25.828Z,39.87
2019-05-20T13:30:32.588Z,43.43
2019-05-20T13:31:40.243Z,44.67
2019-05-20T13:32:47.013Z,41.57
2019-05-20T13:33:54.528Z,45.70
2019-05-20T13:35:01.298Z,48.63
2019-05-20T13:36:09.247Z,46.20
2019-05-20T13:37:16.064Z,44.13
2019-05-20T13:38:23.599Z,42.93
2019-05-20T13:39:30.333Z,46.33
2019-05-20T13:40:46.398Z,41.13
2019-05-20T13:41:46.322Z,47.07
2019-05-20T13:42:54.222Z,46.97
2019-05-20T13:44:01.006Z,46.53
2019-05-20T13:45:09.815Z,45.40
2019-05-20T13:46:16.638Z,41.87
2019-05-20T13:47:24.159Z,44.93
2019-05-20T13:48:31.094Z,42.23
2019-05-20T13:49:38.744Z,42.97
2019-05-20T13:50:45.806Z,47.87
2019-05-20T13:51:53.337Z,45.70
2019-05-20T13:53:00.302Z,44.07
2019-05-20T13:54:08.199Z,40.43
2019-05-20T13:55:15.563Z,42.30
2019-05-20T13:56:23.116Z,44.07
2019-05-20T13:57:30.414Z,40.60
2019-05-20T13:58:38.402Z,38.40
2019-05-20T13:59:46.083Z,44.50
2019-05-20T14:00:54.032Z,42.87
2019-05-20T14:02:00.974Z,45.87
2019-05-20T14:03:08.926Z,51.53
2019-05-20T14:04:15.976Z,40.90
2019-05-20T14:05:23.508Z,41.43
2019-05-20T14:06:30.370Z,44.60
2019-05-20T14:07:38.077Z,42.60
2019-05-20T14:08:45.237Z,37.40
2019-05-20T14:09:53.153Z,44.67
2019-05-20T14:11:04.368Z,42.23
2019-05-20T14:12:09.216Z,40.93
2019-05-20T14:13:16.356Z,41.20
2019-05-20T14:14:24.294Z,43.13
2019-05-20T14:15:31.410Z,37.83
2019-05-20T14:16:38.915Z,44.83
2019-05-20T14:17:45.776Z,41.70
2019-05-20T14:18:53.347Z,38.53
2019-05-20T14:20:00.164Z,44.07
2019-05-20T14:21:08.191Z,37.00
2019-05-20T14:22:15.447Z,44.77
2019-05-20T14:23:22.969Z,40.53
2019-05-20T14:24:30.289Z,40.00
2019-05-20T14:25:39.592Z,41.80
2019-05-20T14:26:46.888Z,42.20
2019-05-20T14:27:54.753Z,39.83
2019-05-20T14:29:01.664Z,44.70
2019-05-20T14:30:09.922Z,43.50